Time;durP1;ratioP1;P1;durP2;ratioP2;P2;SDS_P1;SDS_P2;PMS_P1;PMS_P2;Temp;Humidity;BMP_temperature;BMP_pressure;BME280_temperature;BME280_humidity;BME280_pressure;Samples;Min_cycle;Max_cycle;Signal;HPM_P1;HPM_P2
2022/05/12 00:01:24;;;;;;;;;;;;;;;;;;5054671;28;19912;-78
2022/05/12 00:03:50;;;;;;;;;;;;;;;;;;5055016;28;20353;-78
2022/05/12 00:06:16;;;;;;;;;;;;;;;;;;5054898;28;19909;-78
2022/05/12 00:08:42;;;;;;;;;;;;;;;;;;5054283;28;19913;-76
2022/05/12 00:11:08;;;;;;;;;;;;;;;;;;5054818;28;19920;-76
2022/05/12 00:13:34;;;;;;;;;;;;;;;;;;5054801;28;19970;-76
2022/05/12 00:16:00;;;;;;;;;;;;;;;;;;5054583;28;20410;-77
2022/05/12 00:18:26;;;;;;;;;;;;;;;;;;5054292;28;19904;-76
2022/05/12 00:20:52;;;;;;;;;;;;;;;;;;5054459;28;19916;-77
2022/05/12 00:23:18;;;;;;;;;;;;;;;;;;5054547;28;20285;-76
2022/05/12 00:25:44;;;;;;;;;;;;;;;;;;5054521;28;19909;-77
2022/05/12 00:28:10;;;;;;;;;;;;;;;;;;5054132;28;20307;-76
2022/05/12 00:30:36;;;;;;;;;;;;;;;;;;5054104;28;19999;-75
2022/05/12 00:33:02;;;;;;;;;;;;;;;;;;5054434;28;20285;-75
2022/05/12 00:35:28;;;;;;;;;;;;;;;;;;5054474;28;20368;-76
2022/05/12 00:37:54;;;;;;;;;;;;;;;;;;5054188;28;19931;-76
2022/05/12 00:40:20;;;;;;;;;;;;;;;;;;5053790;28;20007;-75
2022/05/12 00:42:46;;;;;;;;;;;;;;;;;;5054317;28;20361;-76
2022/05/12 00:45:12;;;;;;;;;;;;;;;;;;5054231;28;20342;-75
2022/05/12 00:47:38;;;;;;;;;;;;;;;;;;5053983;28;19909;-74
2022/05/12 00:50:03;;;;;;;;;;;;;;;;;;5053535;28;19909;-74
2022/05/12 00:52:29;;;;;;;;;;;;;;;;;;5054019;28;19912;-74
2022/05/12 00:54:55;;;;;;;;;;;;;;;;;;5053855;28;20369;-74
2022/05/12 00:57:21;;;;;;;;;;;;;;;;;;5053906;28;20003;-74
2022/05/12 00:59:47;;;;;;;;;;;;;;;;;;5054646;28;20364;-74
2022/05/12 01:02:14;;;;;;;;;;;;;;;;;;5053825;28;20003;-74
2022/05/12 01:04:40;;;;;;;;;;;;;;;;;;5053852;28;19909;-74
2022/05/12 01:07:06;;;;;;;;;;;;;;;;;;5053688;28;19916;-74
2022/05/12 01:09:32;;;;;;;;;;;;;;;;;;5053080;28;20289;-74
2022/05/12 01:11:58;;;;;;;;;;;;;;;;;;5052862;28;20381;-76
2022/05/12 01:14:24;;;;;;;;;;;;;;;;;;5053320;28;19908;-74
2022/05/12 01:16:50;;;;;;;;;;;;;;;;;;5053373;28;19909;-74
2022/05/12 01:19:16;;;;;;;;;;;;;;;;;;5052940;28;19915;-74
2022/05/12 01:21:42;;;;;;;;;;;;;;;;;;5053337;28;20295;-74
2022/05/12 01:24:08;;;;;;;;;;;;;;;;;;5053566;28;19970;-74
2022/05/12 01:26:34;;;;;;;;;;;;;;;;;;5053411;28;19908;-75
2022/05/12 01:29:00;;;;;;;;;;;;;;;;;;5052454;28;19917;-75
2022/05/12 01:31:26;;;;;;;;;;;;;;;;;;5053453;28;19960;-74
2022/05/12 01:33:52;;;;;;;;;;;;;;;;;;5053135;28;19909;-73
2022/05/12 01:36:18;;;;;;;;;;;;;;;;;;5053358;28;19909;-74
2022/05/12 01:38:44;;;;;;;;;;;;;;;;;;5052670;28;19909;-71
2022/05/12 01:41:09;;;;;;;;;;;;;;;;;;5053087;28;19995;-72
2022/05/12 01:43:35;;;;;;;;;;;;;;;;;;5052911;28;20007;-72
2022/05/12 01:46:01;;;;;;;;;;;;;;;;;;5052928;28;19908;-72
2022/05/12 01:48:27;;;;;;;;;;;;;;;;;;5052470;28;20353;-72
2022/05/12 01:50:53;;;;;;;;;;;;;;;;;;5052773;28;19913;-72
2022/05/12 01:53:19;;;;;;;;;;;;;;;;;;5052918;28;19944;-72
2022/05/12 01:55:48;;;;;;;;;;;;;;;;;;5052873;28;19988;-71
2022/05/12 01:58:14;;;;;;;;;;;;;;;;;;5052803;28;19999;-72
2022/05/12 02:00:40;;;;;;;;;;;;;;;;;;5052302;28;19951;-71
2022/05/12 02:03:06;;;;;;;;;;;;;;;;;;5052769;28;20330;-72
2022/05/12 02:05:32;;;;;;;;;;;;;;;;;;5052679;28;19932;-72
2022/05/12 02:07:58;;;;;;;;;;;;;;;;;;5052421;28;19919;-74
2022/05/12 02:10:23;;;;;;;;;;;;;;;;;;5052378;28;19909;-76
2022/05/12 02:12:49;;;;;;;;;;;;;;;;;;5052466;28;19909;-73
2022/05/12 02:15:15;;;;;;;;;;;;;;;;;;5052537;28;19909;-74
2022/05/12 02:17:41;;;;;;;;;;;;;;;;;;5052366;28;20269;-72
2022/05/12 02:20:07;;;;;;;;;;;;;;;;;;5051951;28;19912;-76
2022/05/12 02:22:33;;;;;;;;;;;;;;;;;;5052467;28;19916;-73
2022/05/12 02:24:59;;;;;;;;;;;;;;;;;;5052280;28;20416;-73
2022/05/12 02:27:25;;;;;;;;;;;;;;;;;;5052172;28;19948;-76
2022/05/12 02:29:51;;;;;;;;;;;;;;;;;;5051735;28;19924;-74
2022/05/12 02:32:17;;;;;;;;;;;;;;;;;;5052406;28;19908;-75
2022/05/12 02:34:43;;;;;;;;;;;;;;;;;;5052204;28;20338;-76
2022/05/12 02:37:09;;;;;;;;;;;;;;;;;;5052209;28;19913;-76
2022/05/12 02:39:38;;;;;;;;;;;;;;;;;;5051817;28;19909;-76
2022/05/12 02:42:04;;;;;;;;;;;;;;;;;;5052212;28;19915;-76
2022/05/12 02:44:30;;;;;;;;;;;;;;;;;;5052348;28;19909;-76
2022/05/12 02:46:56;;;;;;;;;;;;;;;;;;5052080;28;19931;-75
2022/05/12 02:49:22;;;;;;;;;;;;;;;;;;5051610;28;19917;-76
2022/05/12 02:51:48;;;;;;;;;;;;;;;;;;5052098;28;20434;-76
2022/05/12 02:54:14;;;;;;;;;;;;;;;;;;5051954;28;19965;-76
2022/05/12 02:56:40;;;;;;;;;;;;;;;;;;5052023;28;19940;-76
2022/05/12 02:59:06;;;;;;;;;;;;;;;;;;5051495;28;19913;-75
2022/05/12 03:01:32;;;;;;;;;;;;;;;;;;5052040;28;19967;-76
2022/05/12 03:03:58;;;;;;;;;;;;;;;;;;5052049;28;19915;-76
2022/05/12 03:06:23;;;;;;;;;;;;;;;;;;5052050;28;20269;-75
2022/05/12 03:08:49;;;;;;;;;;;;;;;;;;5051387;28;19912;-76
2022/05/12 03:11:15;;;;;;;;;;;;;;;;;;5051486;28;20452;-76
2022/05/12 03:13:41;;;;;;;;;;;;;;;;;;5051890;28;19915;-77
2022/05/12 03:16:07;;;;;;;;;;;;;;;;;;5051614;28;19970;-77
2022/05/12 03:18:33;;;;;;;;;;;;;;;;;;5048732;28;20308;-74
2022/05/12 03:20:59;;;;;;;;;;;;;;;;;;5048168;28;20455;-73
2022/05/12 03:23:25;;;;;;;;;;;;;;;;;;5053159;28;20370;-76
2022/05/12 03:25:52;;;;;;;;;;;;;;;;;;5053161;28;19913;-77
2022/05/12 03:28:18;;;;;;;;;;;;;;;;;;5052769;28;19948;-75
2022/05/12 03:30:44;;;;;;;;;;;;;;;;;;5040512;28;19955;-76
2022/05/12 03:33:09;;;;;;;;;;;;;;;;;;5048947;28;20003;-75
2022/05/12 03:35:36;;;;;;;;;;;;;;;;;;5037784;28;19913;-75
2022/05/12 03:38:02;;;;;;;;;;;;;;;;;;5048750;28;19924;-75
2022/05/12 03:40:28;;;;;;;;;;;;;;;;;;5049425;28;19913;-75
2022/05/12 03:42:58;;;;;;;;;;;;;;;;;;5054331;28;19917;-74
2022/05/12 03:45:24;;;;;;;;;;;;;;;;;;5054417;28;20258;-74
2022/05/12 03:47:50;;;;;;;;;;;;;;;;;;5046114;28;19920;-75
2022/05/12 03:50:16;;;;;;;;;;;;;;;;;;5049538;28;19917;-73
2022/05/12 03:52:42;;;;;;;;;;;;;;;;;;5041219;28;19963;-74
2022/05/12 03:55:08;;;;;;;;;;;;;;;;;;5051320;28;20372;-78
2022/05/12 03:57:35;;;;;;;;;;;;;;;;;;5054892;28;20019;-73
2022/05/12 04:00:03;;;;;;;;;;;;;;;;;;5050059;28;19920;-75
2022/05/12 04:02:29;;;;;;;;;;;;;;;;;;5035243;28;19920;-75
2022/05/12 04:04:55;;;;;;;;;;;;;;;;;;5035087;28;19909;-75
2022/05/12 04:07:21;;;;;;;;;;;;;;;;;;5034945;28;19909;-75
2022/05/12 04:09:47;;;;;;;;;;;;;;;;;;5035652;28;19917;-75
2022/05/12 04:12:13;;;;;;;;;;;;;;;;;;5034294;28;19913;-75
2022/05/12 04:14:39;;;;;;;;;;;;;;;;;;5047685;28;19923;-76
2022/05/12 04:17:04;;;;;;;;;;;;;;;;;;5054559;28;19909;-75
2022/05/12 04:19:30;;;;;;;;;;;;;;;;;;5054122;28;19913;-75
2022/05/12 04:21:56;;;;;;;;;;;;;;;;;;5053369;28;20373;-76
2022/05/12 04:24:22;;;;;;;;;;;;;;;;;;5054483;28;19916;-76
2022/05/12 04:26:48;;;;;;;;;;;;;;;;;;5047684;28;19917;-75
2022/05/12 04:29:14;;;;;;;;;;;;;;;;;;5049436;28;19970;-75
2022/05/12 04:31:40;;;;;;;;;;;;;;;;;;5054440;28;19954;-75
2022/05/12 04:36:50;;;;;;;;;;;;;;;;;;5043832;28;19965;-74
2022/05/12 04:39:17;;;;;;;;;;;;;;;;;;5047793;28;19917;-74
2022/05/12 04:41:43;;;;;;;;;;;;;;;;;;5050625;28;19920;-74
2022/05/12 04:44:09;;;;;;;;;;;;;;;;;;5054081;28;19909;-74
2022/05/12 04:46:36;;;;;;;;;;;;;;;;;;5054183;28;19927;-75
2022/05/12 04:49:01;;;;;;;;;;;;;;;;;;5053457;28;19963;-76
2022/05/12 04:51:27;;;;;;;;;;;;;;;;;;5043201;28;19917;-74
2022/05/12 04:53:53;;;;;;;;;;;;;;;;;;5053848;28;20369;-75
2022/05/12 04:56:19;;;;;;;;;;;;;;;;;;5053843;28;20357;-74
2022/05/12 04:58:45;;;;;;;;;;;;;;;;;;5052351;28;19917;-75
2022/05/12 05:01:11;;;;;;;;;;;;;;;;;;5052080;28;19971;-76
2022/05/12 05:03:37;;;;;;;;;;;;;;;;;;5051535;28;19963;-75
2022/05/12 05:06:03;;;;;;;;;;;;;;;;;;5047530;28;20003;-76
2022/05/12 05:08:29;;;;;;;;;;;;;;;;;;5051830;28;19966;-76
2022/05/12 05:10:55;;;;;;;;;;;;;;;;;;5044454;28;19975;-75
2022/05/12 05:13:21;;;;;;;;;;;;;;;;;;5051630;28;20373;-76
2022/05/12 05:15:47;;;;;;;;;;;;;;;;;;5045723;28;20008;-75
2022/05/12 05:18:13;;;;;;;;;;;;;;;;;;5038218;28;20023;-76
2022/05/12 05:20:39;;;;;;;;;;;;;;;;;;5051591;28;20362;-75
2022/05/12 05:23:05;;;;;;;;;;;;;;;;;;5060881;28;19912;-76
2022/05/12 05:25:31;;;;;;;;;;;;;;;;;;5068913;28;19967;-75
2022/05/12 05:27:57;;;;;;;;;;;;;;;;;;5070462;28;19956;-72
2022/05/12 05:30:23;;;;;;;;;;;;;;;;;;5068155;28;19912;-73
2022/05/12 05:32:49;;;;;;;;;;;;;;;;;;5072325;28;19909;-75
2022/05/12 05:35:15;;;;;;;;;;;;;;;;;;5072207;28;19961;-72
2022/05/12 05:37:41;;;;;;;;;;;;;;;;;;5073201;28;19999;-71
2022/05/12 05:40:07;;;;;;;;;;;;;;;;;;5072746;28;19913;-71
2022/05/12 05:42:33;;;;;;;;;;;;;;;;;;5072971;28;19915;-75
2022/05/12 05:44:59;;;;;;;;;;;;;;;;;;5073008;28;20022;-72
2022/05/12 05:47:25;;;;;;;;;;;;;;;;;;5072834;28;19912;-75
2022/05/12 05:49:51;;;;;;;;;;;;;;;;;;5073558;28;19966;-73
2022/05/12 05:55:02;;;;;;;;;;;;;;;;;;5074225;28;19961;-71
2022/05/12 05:57:30;;;;;;;;;;;;;;;;;;5072819;28;19922;-71
2022/05/12 05:59:56;;;;;;;;;;;;;;;;;;5071769;28;19919;-75
2022/05/12 06:02:22;;;;;;;;;;;;;;;;;;5072679;28;20311;-72
2022/05/12 06:04:48;;;;;;;;;;;;;;;;;;5072701;28;19909;-71
2022/05/12 06:07:14;;;;;;;;;;;;;;;;;;5072790;28;19908;-73
2022/05/12 06:09:41;;;;;;;;;;;;;;;;;;5072153;28;19914;-72
2022/05/12 06:12:06;;;;;;;;;;;;;;;;;;5072746;28;19915;-72
2022/05/12 06:14:33;;;;;;;;;;;;;;;;;;5072623;28;19909;-73
2022/05/12 06:16:59;;;;;;;;;;;;;;;;;;5072640;28;19912;-74
2022/05/12 06:19:25;;;;;;;;;;;;;;;;;;5071882;28;19923;-73
2022/05/12 06:21:51;;;;;;;;;;;;;;;;;;5072403;28;19916;-73
2022/05/12 06:24:16;;;;;;;;;;;;;;;;;;5072549;28;19931;-73
2022/05/12 06:26:42;;;;;;;;;;;;;;;;;;5072496;28;20365;-73
2022/05/12 06:29:08;;;;;;;;;;;;;;;;;;5071903;28;19920;-73
2022/05/12 06:31:34;;;;;;;;;;;;;;;;;;5072377;28;19915;-75
2022/05/12 06:34:00;;;;;;;;;;;;;;;;;;5072370;28;20268;-71
2022/05/12 06:36:27;;;;;;;;;;;;;;;;;;5072343;28;19920;-76
2022/05/12 06:38:53;;;;;;;;;;;;;;;;;;5071777;28;19916;-73
2022/05/12 06:41:20;;;;;;;;;;;;;;;;;;5072267;28;19909;-73
2022/05/12 06:43:46;;;;;;;;;;;;;;;;;;5072251;28;19913;-73
2022/05/12 06:46:12;;;;;;;;;;;;;;;;;;5072335;28;19959;-73
2022/05/12 06:48:38;;;;;;;;;;;;;;;;;;5071695;28;19915;-70
2022/05/12 06:51:04;;;;;;;;;;;;;;;;;;5072213;28;19958;-70
2022/05/12 06:53:30;;;;;;;;;;;;;;;;;;5072073;28;20260;-70
2022/05/12 06:55:55;;;;;;;;;;;;;;;;;;5072141;28;19909;-70
2022/05/12 06:58:21;;;;;;;;;;;;;;;;;;5071479;28;19909;-71
2022/05/12 07:00:47;;;;;;;;;;;;;;;;;;5071617;28;19909;-70
2022/05/12 07:03:13;;;;;;;;;;;;;;;;;;5071815;28;20376;-71
2022/05/12 07:05:39;;;;;;;;;;;;;;;;;;5071726;28;19912;-70
2022/05/12 07:08:06;;;;;;;;;;;;;;;;;;5071618;28;19905;-70
2022/05/12 07:10:32;;;;;;;;;;;;;;;;;;5072042;28;20365;-70
2022/05/12 07:12:57;;;;;;;;;;;;;;;;;;5075556;28;19919;-71
2022/05/12 07:15:27;;;;;;;;;;;;;;;;;;5075522;28;19908;-71
2022/05/12 07:17:54;;;;;;;;;;;;;;;;;;5075358;28;19909;-71
2022/05/12 07:28:35;;;;;;;;;;;;;;;;;;5076100;28;19970;-71
2022/05/12 07:31:01;;;;;;;;;;;;;;;;;;5075154;28;19920;-71
2022/05/12 07:33:27;;;;;;;;;;;;;;;;;;5075260;28;20264;-71
2022/05/12 07:35:53;;;;;;;;;;;;;;;;;;5075175;28;19995;-71
2022/05/12 07:38:20;;;;;;;;;;;;;;;;;;5074955;28;19908;-71
2022/05/12 07:40:46;;;;;;;;;;;;;;;;;;5075074;28;20006;-71
2022/05/12 07:43:12;;;;;;;;;;;;;;;;;;5075042;28;19952;-71
2022/05/12 07:45:38;;;;;;;;;;;;;;;;;;5074938;28;19955;-71
2022/05/12 07:48:03;;;;;;;;;;;;;;;;;;5074886;28;20012;-70
2022/05/12 07:50:31;;;;;;;;;;;;;;;;;;5074596;28;20348;-71
2022/05/12 07:52:57;;;;;;;;;;;;;;;;;;5074835;28;19908;-71
2022/05/12 07:55:22;;;;;;;;;;;;;;;;;;5074840;28;20068;-71
2022/05/12 07:57:48;;;;;;;;;;;;;;;;;;5074555;28;19931;-71
2022/05/12 08:00:14;;;;;;;;;;;;;;;;;;5074269;28;20356;-71
2022/05/12 08:02:40;;;;;;;;;;;;;;;;;;5074673;28;19909;-71
2022/05/12 08:05:06;;;;;;;;;;;;;;;;;;5074709;28;19909;-71
2022/05/12 08:07:32;;;;;;;;;;;;;;;;;;5074529;28;19908;-71
2022/05/12 08:10:00;;;;;;;;;;;;;;;;;;5074044;28;19908;-71
2022/05/12 08:12:26;;;;;;;;;;;;;;;;;;5074589;28;19908;-71
2022/05/12 08:14:52;;;;;;;;;;;;;;;;;;5074515;28;19919;-71
2022/05/12 08:17:18;;;;;;;;;;;;;;;;;;5074423;28;19909;-71
2022/05/12 08:19:44;;;;;;;;;;;;;;;;;;5073787;28;19919;-71
2022/05/12 08:22:10;;;;;;;;;;;;;;;;;;5074056;28;19915;-71
2022/05/12 08:24:36;;;;;;;;;;;;;;;;;;5074211;28;19909;-70
2022/05/12 08:27:02;;;;;;;;;;;;;;;;;;5074183;28;20319;-71
2022/05/12 08:29:28;;;;;;;;;;;;;;;;;;5073689;28;20315;-71
2022/05/12 08:31:54;;;;;;;;;;;;;;;;;;5074083;28;19908;-71
2022/05/12 08:34:20;;;;;;;;;;;;;;;;;;5074257;28;19915;-71
2022/05/12 08:36:46;;;;;;;;;;;;;;;;;;5073992;28;19923;-71
2022/05/12 08:39:11;;;;;;;;;;;;;;;;;;5073516;28;19964;-69
2022/05/12 08:41:37;;;;;;;;;;;;;;;;;;5073877;28;19927;-71
2022/05/12 08:44:03;;;;;;;;;;;;;;;;;;5073918;28;19952;-69
2022/05/12 08:46:29;;;;;;;;;;;;;;;;;;5073884;28;20283;-69
2022/05/12 08:48:55;;;;;;;;;;;;;;;;;;5073213;28;19908;-69
2022/05/12 08:51:22;;;;;;;;;;;;;;;;;;5073780;28;20368;-69
2022/05/12 08:53:48;;;;;;;;;;;;;;;;;;5073593;28;19909;-70
2022/05/12 08:56:14;;;;;;;;;;;;;;;;;;5073681;28;19914;-71
2022/05/12 08:58:40;;;;;;;;;;;;;;;;;;5073028;28;19950;-71
2022/05/12 09:01:06;;;;;;;;;;;;;;;;;;5073495;28;19952;-69
2022/05/12 09:03:32;;;;;;;;;;;;;;;;;;5073553;28;19916;-72
2022/05/12 09:05:59;;;;;;;;;;;;;;;;;;5073496;28;19920;-70
2022/05/12 09:08:25;;;;;;;;;;;;;;;;;;5073209;28;19962;-71
2022/05/12 09:10:51;;;;;;;;;;;;;;;;;;5073334;28;19940;-69
2022/05/12 09:13:18;;;;;;;;;;;;;;;;;;5073308;28;19916;-69
2022/05/12 09:15:44;;;;;;;;;;;;;;;;;;5073233;28;20269;-69
2022/05/12 09:18:10;;;;;;;;;;;;;;;;;;5073076;28;19909;-70
2022/05/12 09:20:36;;;;;;;;;;;;;;;;;;5072814;28;19908;-71
2022/05/12 09:23:02;;;;;;;;;;;;;;;;;;5073188;28;19914;-69
2022/05/12 09:25:28;;;;;;;;;;;;;;;;;;5073195;28;20003;-71
2022/05/12 09:27:57;;;;;;;;;;;;;;;;;;5072815;28;20446;-71
2022/05/12 09:30:23;;;;;;;;;;;;;;;;;;5072718;28;19912;-71
2022/05/12 09:32:49;;;;;;;;;;;;;;;;;;5072457;28;19958;-70
2022/05/12 09:35:15;;;;;;;;;;;;;;;;;;5072718;28;19953;-69
2022/05/12 09:37:42;;;;;;;;;;;;;;;;;;5072861;28;20306;-69
2022/05/12 09:40:08;;;;;;;;;;;;;;;;;;5072347;28;20020;-69
2022/05/12 09:42:33;;;;;;;;;;;;;;;;;;5072741;28;19955;-69
2022/05/12 09:44:59;;;;;;;;;;;;;;;;;;5072805;28;20020;-71
2022/05/12 09:47:25;;;;;;;;;;;;;;;;;;5072656;28;20018;-70
2022/05/12 09:50:15;;;;;;;;;;;;;;;;;;5072156;28;19909;-71
2022/05/12 09:52:39;;;;;;;;;;;;;;;;;;5073713;28;19908;-69
2022/05/12 09:55:05;;;;;;;;;;;;;;;;;;5072615;28;19909;-70
2022/05/12 09:57:31;;;;;;;;;;;;;;;;;;5072552;28;19908;-70
2022/05/12 09:59:57;;;;;;;;;;;;;;;;;;5071982;28;19916;-69
2022/05/12 10:10:18;;;;;;;;;;;;;;;;;;5073329;28;19908;-70
2022/05/12 10:12:46;;;;;;;;;;;;;;;;;;5073634;28;20353;-70
2022/05/12 10:15:11;;;;;;;;;;;;;;;;;;5072331;28;19915;-70
2022/05/12 10:17:37;;;;;;;;;;;;;;;;;;5072242;28;19908;-70
2022/05/12 10:20:03;;;;;;;;;;;;;;;;;;5071774;28;20273;-69
2022/05/12 10:22:29;;;;;;;;;;;;;;;;;;5072319;28;19952;-70
2022/05/12 10:24:57;;;;;;;;;;;;;;;;;;5072179;28;19916;-69
2022/05/12 10:27:23;;;;;;;;;;;;;;;;;;5072076;28;19909;-69
2022/05/12 10:29:49;;;;;;;;;;;;;;;;;;5071770;28;19958;-70
2022/05/12 10:32:15;;;;;;;;;;;;;;;;;;5072159;28;19908;-71
2022/05/12 10:34:41;;;;;;;;;;;;;;;;;;5072088;28;19909;-69
2022/05/12 10:37:07;;;;;;;;;;;;;;;;;;5072100;28;20353;-70
2022/05/12 10:39:33;;;;;;;;;;;;;;;;;;5071531;28;20381;-71
2022/05/12 10:41:58;;;;;;;;;;;;;;;;;;5071999;28;19913;-71
2022/05/12 10:44:24;;;;;;;;;;;;;;;;;;5072612;28;19909;-71
2022/05/12 10:46:50;;;;;;;;;;;;;;;;;;5076106;28;19944;-72
2022/05/12 10:49:18;;;;;;;;;;;;;;;;;;5075582;28;19919;-71
2022/05/12 10:51:44;;;;;;;;;;;;;;;;;;5075994;28;19912;-72
2022/05/12 10:54:10;;;;;;;;;;;;;;;;;;5076040;28;19970;-70
2022/05/12 10:56:36;;;;;;;;;;;;;;;;;;5075956;28;19908;-71
2022/05/12 10:59:04;;;;;;;;;;;;;;;;;;5066587;28;19924;-70
2022/05/12 11:01:30;;;;;;;;;;;;;;;;;;5047213;28;19913;-70
2022/05/12 11:03:56;;;;;;;;;;;;;;;;;;5047951;28;19916;-71
2022/05/12 11:06:22;;;;;;;;;;;;;;;;;;5042512;28;19913;-71
2022/05/12 11:08:48;;;;;;;;;;;;;;;;;;5051092;28;19912;-71
2022/05/12 11:11:15;;;;;;;;;;;;;;;;;;5047398;28;20298;-71
2022/05/12 11:13:41;;;;;;;;;;;;;;;;;;5048046;28;19913;-70
2022/05/12 11:16:07;;;;;;;;;;;;;;;;;;5040202;28;19958;-71
2022/05/12 11:18:33;;;;;;;;;;;;;;;;;;5052478;28;19913;-71
2022/05/12 11:20:58;;;;;;;;;;;;;;;;;;5046259;28;19924;-70
2022/05/12 11:23:25;;;;;;;;;;;;;;;;;;5045757;28;20284;-72
2022/05/12 11:25:51;;;;;;;;;;;;;;;;;;5059027;28;19954;-70
2022/05/12 11:31:02;;;;;;;;;;;;;;;;;;5050177;28;19923;-70
2022/05/12 11:33:28;;;;;;;;;;;;;;;;;;5053501;28;19913;-71
2022/05/12 11:35:54;;;;;;;;;;;;;;;;;;5053249;28;20364;-71
2022/05/12 11:38:20;;;;;;;;;;;;;;;;;;5054979;28;20425;-70
2022/05/12 11:40:49;;;;;;;;;;;;;;;;;;5050715;28;20003;-70
2022/05/12 11:45:59;;;;;;;;;;;;;;;;;;5050698;28;19938;-71
2022/05/12 11:48:25;;;;;;;;;;;;;;;;;;5054829;28;20260;-70
2022/05/12 11:50:51;;;;;;;;;;;;;;;;;;5049249;28;20000;-71
2022/05/12 11:53:17;;;;;;;;;;;;;;;;;;5044182;28;19913;-72
2022/05/12 11:55:43;;;;;;;;;;;;;;;;;;5053739;28;20324;-72
2022/05/12 11:58:09;;;;;;;;;;;;;;;;;;5044989;28;19912;-70
2022/05/12 12:00:35;;;;;;;;;;;;;;;;;;5043523;28;19919;-70
2022/05/12 12:03:01;;;;;;;;;;;;;;;;;;5049231;28;19917;-71
2022/05/12 12:05:27;;;;;;;;;;;;;;;;;;5045440;28;20376;-70
2022/05/12 12:07:53;;;;;;;;;;;;;;;;;;5059136;28;19913;-71
2022/05/12 12:10:19;;;;;;;;;;;;;;;;;;5055896;28;19915;-70
2022/05/12 12:12:45;;;;;;;;;;;;;;;;;;5045194;28;20392;-71
2022/05/12 12:15:11;;;;;;;;;;;;;;;;;;5042076;28;20261;-72
2022/05/12 12:17:37;;;;;;;;;;;;;;;;;;5045705;28;20395;-73
2022/05/12 12:20:03;;;;;;;;;;;;;;;;;;5052830;28;20381;-72
2022/05/12 12:22:29;;;;;;;;;;;;;;;;;;5039541;28;19944;-71
2022/05/12 12:24:55;;;;;;;;;;;;;;;;;;5041246;28;19919;-71
2022/05/12 12:27:21;;;;;;;;;;;;;;;;;;5056455;28;19996;-71
2022/05/12 12:29:47;;;;;;;;;;;;;;;;;;5052050;28;20435;-71
2022/05/12 12:32:13;;;;;;;;;;;;;;;;;;5050948;28;19923;-71
2022/05/12 12:34:39;;;;;;;;;;;;;;;;;;5055187;28;19971;-71
2022/05/12 12:37:05;;;;;;;;;;;;;;;;;;5060577;28;19916;-71
2022/05/12 12:39:31;;;;;;;;;;;;;;;;;;5063236;28;19917;-71
2022/05/12 12:41:57;;;;;;;;;;;;;;;;;;5054256;28;19999;-71
2022/05/12 12:44:23;;;;;;;;;;;;;;;;;;5053533;28;19912;-71
2022/05/12 12:46:49;;;;;;;;;;;;;;;;;;5056441;28;19916;-72
2022/05/12 12:49:14;;;;;;;;;;;;;;;;;;5045456;28;19917;-72
2022/05/12 12:51:40;;;;;;;;;;;;;;;;;;5047686;28;20383;-70
2022/05/12 12:56:51;;;;;;;;;;;;;;;;;;5052281;28;20277;-73
2022/05/12 12:59:17;;;;;;;;;;;;;;;;;;5037622;28;19917;-74
2022/05/12 13:01:44;;;;;;;;;;;;;;;;;;5035327;28;19959;-72
2022/05/12 13:04:10;;;;;;;;;;;;;;;;;;5032973;28;20365;-72
2022/05/12 13:06:36;;;;;;;;;;;;;;;;;;5045255;28;19913;-71
2022/05/12 13:09:02;;;;;;;;;;;;;;;;;;5052122;28;19919;-70
2022/05/12 13:11:28;;;;;;;;;;;;;;;;;;5039116;28;19913;-71
2022/05/12 13:13:54;;;;;;;;;;;;;;;;;;5043594;28;19924;-71
2022/05/12 13:16:20;;;;;;;;;;;;;;;;;;5053286;28;20349;-71
2022/05/12 13:18:46;;;;;;;;;;;;;;;;;;5044933;28;19925;-71
2022/05/12 13:21:12;;;;;;;;;;;;;;;;;;5049225;28;19965;-72
2022/05/12 13:23:44;;;;;;;;;;;;;;;;;;5046813;28;19913;-72
2022/05/12 13:26:10;;;;;;;;;;;;;;;;;;5056808;28;19958;-72
2022/05/12 13:28:37;;;;;;;;;;;;;;;;;;5040428;28;20392;-70
2022/05/12 13:31:04;;;;;;;;;;;;;;;;;;5045599;28;19920;-69
2022/05/12 13:33:31;;;;;;;;;;;;;;;;;;5055111;28;19920;-71
2022/05/12 13:35:58;;;;;;;;;;;;;;;;;;5055407;28;19913;-70
2022/05/12 13:38:25;;;;;;;;;;;;;;;;;;5044198;28;19912;-71
2022/05/12 13:40:51;;;;;;;;;;;;;;;;;;5038880;28;20361;-71
2022/05/12 13:43:18;;;;;;;;;;;;;;;;;;5052601;28;20282;-71
2022/05/12 13:45:45;;;;;;;;;;;;;;;;;;5048035;28;20015;-70
2022/05/12 13:48:12;;;;;;;;;;;;;;;;;;5049378;28;19913;-70
2022/05/12 13:50:38;;;;;;;;;;;;;;;;;;5046232;28;19939;-72
2022/05/12 13:53:05;;;;;;;;;;;;;;;;;;5053234;28;19920;-70
2022/05/12 13:55:31;;;;;;;;;;;;;;;;;;5042005;28;19920;-71
2022/05/12 13:57:57;;;;;;;;;;;;;;;;;;5042046;28;19917;-70
2022/05/12 14:00:23;;;;;;;;;;;;;;;;;;5051514;28;20376;-72
2022/05/12 14:02:50;;;;;;;;;;;;;;;;;;5039864;28;20003;-72
2022/05/12 14:05:16;;;;;;;;;;;;;;;;;;5038867;28;19924;-72
2022/05/12 14:07:42;;;;;;;;;;;;;;;;;;5038060;28;19921;-71
2022/05/12 14:10:08;;;;;;;;;;;;;;;;;;5052933;28;19909;-71
2022/05/12 14:12:34;;;;;;;;;;;;;;;;;;5043090;28;19948;-72
2022/05/12 14:20:29;;;;;;;;;;;;;;;;;;5049272;28;19975;-72
2022/05/12 14:22:56;;;;;;;;;;;;;;;;;;5052267;28;20361;-72
2022/05/12 14:25:24;;;;;;;;;;;;;;;;;;5045823;28;20261;-73
2022/05/12 14:27:50;;;;;;;;;;;;;;;;;;5068820;28;20371;-73
2022/05/12 14:30:18;;;;;;;;;;;;;;;;;;5022659;28;22206;-72
2022/05/12 14:32:44;;;;;;;;;;;;;;;;;;5039976;28;19999;-72
2022/05/12 14:35:10;;;;;;;;;;;;;;;;;;5052009;28;19908;-72
2022/05/12 14:37:36;;;;;;;;;;;;;;;;;;5051509;28;20277;-71
2022/05/12 14:40:02;;;;;;;;;;;;;;;;;;5047522;28;19917;-72
2022/05/12 14:42:28;;;;;;;;;;;;;;;;;;5046784;28;20008;-72
2022/05/12 14:44:54;;;;;;;;;;;;;;;;;;5044694;28;20007;-72
2022/05/12 14:47:20;;;;;;;;;;;;;;;;;;5041607;28;19999;-71
2022/05/12 14:49:48;;;;;;;;;;;;;;;;;;5046656;28;19962;-71
2022/05/12 14:52:14;;;;;;;;;;;;;;;;;;5038574;28;19921;-72
2022/05/12 14:54:41;;;;;;;;;;;;;;;;;;5044633;28;20051;-71
2022/05/12 14:57:07;;;;;;;;;;;;;;;;;;5037756;28;19917;-71
2022/05/12 14:59:33;;;;;;;;;;;;;;;;;;5042658;28;19916;-70
2022/05/12 15:01:59;;;;;;;;;;;;;;;;;;5038932;28;19917;-71
2022/05/12 15:04:25;;;;;;;;;;;;;;;;;;5041289;28;19971;-72
2022/05/12 15:06:51;;;;;;;;;;;;;;;;;;5038547;28;19920;-71
2022/05/12 15:09:17;;;;;;;;;;;;;;;;;;5041504;28;19913;-71
2022/05/12 15:11:43;;;;;;;;;;;;;;;;;;5048801;28;19935;-71
2022/05/12 15:14:10;;;;;;;;;;;;;;;;;;5051871;28;20365;-71
2022/05/12 15:16:35;;;;;;;;;;;;;;;;;;5053058;28;19916;-72
2022/05/12 15:19:01;;;;;;;;;;;;;;;;;;5051452;28;19913;-72
2022/05/12 15:21:27;;;;;;;;;;;;;;;;;;5051921;28;20288;-70
2022/05/12 15:23:53;;;;;;;;;;;;;;;;;;5049766;28;19909;-73
2022/05/12 15:26:19;;;;;;;;;;;;;;;;;;5051350;28;19913;-71
2022/05/12 15:28:45;;;;;;;;;;;;;;;;;;5050961;28;19917;-70
2022/05/12 15:31:11;;;;;;;;;;;;;;;;;;5052904;28;20254;-71
2022/05/12 15:33:37;;;;;;;;;;;;;;;;;;5055343;28;20316;-71
2022/05/12 15:36:03;;;;;;;;;;;;;;;;;;5055378;28;19909;-70
2022/05/12 15:38:29;;;;;;;;;;;;;;;;;;5054787;28;19920;-73
2022/05/12 15:40:55;;;;;;;;;;;;;;;;;;5055151;28;19909;-70
2022/05/12 15:43:21;;;;;;;;;;;;;;;;;;5056495;28;19909;-74
2022/05/12 15:45:47;;;;;;;;;;;;;;;;;;5055182;28;19915;-71
2022/05/12 15:48:13;;;;;;;;;;;;;;;;;;5055133;28;19909;-74
2022/05/12 15:50:39;;;;;;;;;;;;;;;;;;5054881;28;19955;-71
2022/05/12 15:53:05;;;;;;;;;;;;;;;;;;5055386;28;19956;-70
2022/05/12 15:55:31;;;;;;;;;;;;;;;;;;5055319;28;19915;-71
2022/05/12 15:57:57;;;;;;;;;;;;;;;;;;5054690;28;19916;-71
2022/05/12 16:00:23;;;;;;;;;;;;;;;;;;5054738;28;19920;-71
2022/05/12 16:02:49;;;;;;;;;;;;;;;;;;5055084;28;20336;-71
2022/05/12 16:05:15;;;;;;;;;;;;;;;;;;5055045;28;20353;-71
2022/05/12 16:07:41;;;;;;;;;;;;;;;;;;5054682;28;19908;-70
2022/05/12 16:10:07;;;;;;;;;;;;;;;;;;5054435;28;19909;-70
2022/05/12 16:12:39;;;;;;;;;;;;;;;;;;5054713;28;19909;-71
2022/05/12 16:15:21;;;;;;;;;;;;;;;;;;5054743;28;19909;-70
2022/05/12 16:17:47;;;;;;;;;;;;;;;;;;5054567;28;19909;-70
2022/05/12 16:20:13;;;;;;;;;;;;;;;;;;5054223;28;19913;-70
2022/05/12 16:22:39;;;;;;;;;;;;;;;;;;5054488;28;19950;-71
2022/05/12 16:25:05;;;;;;;;;;;;;;;;;;5054673;28;20448;-70
2022/05/12 16:27:31;;;;;;;;;;;;;;;;;;5054296;28;20297;-70
2022/05/12 16:29:57;;;;;;;;;;;;;;;;;;5054031;28;19913;-70
2022/05/12 16:32:23;;;;;;;;;;;;;;;;;;5054400;28;19916;-70
2022/05/12 16:34:49;;;;;;;;;;;;;;;;;;5054419;28;19913;-70
2022/05/12 16:37:15;;;;;;;;;;;;;;;;;;5054195;28;19916;-69
2022/05/12 16:39:41;;;;;;;;;;;;;;;;;;5053651;28;19966;-70
2022/05/12 16:42:08;;;;;;;;;;;;;;;;;;5054062;28;19916;-72
2022/05/12 16:44:34;;;;;;;;;;;;;;;;;;5054223;28;19908;-72
2022/05/12 16:46:59;;;;;;;;;;;;;;;;;;5054182;28;19913;-71
2022/05/12 16:49:26;;;;;;;;;;;;;;;;;;5053621;28;20349;-72
2022/05/12 16:51:52;;;;;;;;;;;;;;;;;;5054115;28;19908;-74
2022/05/12 16:54:18;;;;;;;;;;;;;;;;;;5054274;28;19915;-70
2022/05/12 16:56:44;;;;;;;;;;;;;;;;;;5053984;28;19909;-70
2022/05/12 16:59:10;;;;;;;;;;;;;;;;;;5053336;28;20266;-70
2022/05/12 17:01:37;;;;;;;;;;;;;;;;;;5053948;28;19924;-72
2022/05/12 17:04:03;;;;;;;;;;;;;;;;;;5053903;28;19999;-71
2022/05/12 17:06:29;;;;;;;;;;;;;;;;;;5053917;28;19955;-73
2022/05/12 17:08:55;;;;;;;;;;;;;;;;;;5053138;28;19978;-73
2022/05/12 17:11:21;;;;;;;;;;;;;;;;;;5053714;28;20363;-70
2022/05/12 17:14:02;;;;;;;;;;;;;;;;;;5053889;28;19909;-75